Time;durP1;ratioP1;P1;durP2;ratioP2;P2;SDS_P1;SDS_P2;PMS_P1;PMS_P2;Temp;Humidity;BMP_temperature;BMP_pressure;BME280_temperature;BME280_humidity;BME280_pressure;Samples;Min_cycle;Max_cycle;Signal;HPM_P1;HPM_P2
2024/02/10 00:00:04;;;;;;;25.75;16.30;;;9.70;99.90;;;;;;2080709;28;20094;-78
2024/02/10 00:01:13;;;;;;;22.65;16.38;;;9.70;99.90;;;;;;2081025;28;20991;-77
2024/02/10 00:02:15;;;;;;;24.27;16.85;;;9.70;99.90;;;;;;2085178;28;20021;-77
2024/02/10 00:03:16;;;;;;;23.30;17.08;;;9.60;99.90;;;;;;2089153;28;20029;-78
2024/02/10 00:04:17;;;;;;;22.13;16.50;;;9.60;99.90;;;;;;2088655;28;20034;-78
2024/02/10 00:05:18;;;;;;;22.05;15.38;;;9.60;99.90;;;;;;2091503;28;20044;-78
2024/02/10 00:06:18;;;;;;;21.73;16.20;;;9.60;99.90;;;;;;2079978;28;20570;-77
2024/02/10 00:07:20;;;;;;;21.15;15.90;;;9.60;99.90;;;;;;2067299;28;20040;-77
2024/02/10 00:08:22;;;;;;;20.58;15.50;;;9.60;99.90;;;;;;2077914;28;20037;-78
2024/02/10 00:09:23;;;;;;;21.50;16.10;;;9.60;99.90;;;;;;2080861;28;20032;-78
2024/02/10 00:10:25;;;;;;;24.70;15.70;;;9.60;99.90;;;;;;2078296;28;20083;-78
2024/02/10 00:11:26;;;;;;;21.85;15.95;;;9.50;99.90;;;;;;2084853;28;20035;-76
2024/02/10 00:12:26;;;;;;;23.98;16.63;;;9.60;99.90;;;;;;2085042;28;20064;-77
2024/02/10 00:13:29;;;;;;;22.27;15.98;;;9.60;99.90;;;;;;2075669;28;20029;-77
2024/02/10 00:14:32;;;;;;;23.50;16.05;;;9.60;99.90;;;;;;2079133;28;20064;-77
2024/02/10 00:15:33;;;;;;;21.70;15.55;;;9.60;99.90;;;;;;2080565;28;20051;-77
2024/02/10 00:16:33;;;;;;;22.67;16.92;;;9.50;99.90;;;;;;2076837;28;20021;-77
2024/02/10 00:17:34;;;;;;;23.40;15.90;;;9.50;99.90;;;;;;2077630;28;20111;-77
2024/02/10 00:18:34;;;;;;;20.45;15.30;;;9.50;99.90;;;;;;2085647;28;20074;-77
2024/02/10 00:19:37;;;;;;;21.50;15.50;;;9.50;99.90;;;;;;2087461;28;20033;-77
2024/02/10 00:20:37;;;;;;;22.40;15.38;;;9.50;99.90;;;;;;2087964;28;20492;-77
2024/02/10 00:21:38;;;;;;;22.77;15.57;;;9.50;99.90;;;;;;2086269;28;20025;-77
2024/02/10 00:22:39;;;;;;;23.58;16.02;;;9.50;99.90;;;;;;2086194;28;20369;-77
2024/02/10 00:23:41;;;;;;;20.90;15.40;;;9.50;99.90;;;;;;2086838;28;20027;-76
2024/02/10 00:24:42;;;;;;;21.95;16.35;;;9.50;99.90;;;;;;2083980;28;20086;-77
2024/02/10 00:25:43;;;;;;;21.13;15.63;;;9.50;99.90;;;;;;2085898;28;20588;-78
2024/02/10 00:26:45;;;;;;;23.73;15.93;;;9.50;99.90;;;;;;2086274;28;20493;-77
2024/02/10 00:27:46;;;;;;;21.65;15.63;;;9.50;99.90;;;;;;2089822;28;20472;-76
2024/02/10 00:28:48;;;;;;;24.70;16.13;;;9.50;99.90;;;;;;2076675;28;20065;-77
2024/02/10 00:29:48;;;;;;;19.88;15.30;;;9.50;99.90;;;;;;2074906;28;20522;-77
2024/02/10 00:30:49;;;;;;;21.55;16.25;;;9.50;99.90;;;;;;2087077;28;20032;-77
2024/02/10 00:31:50;;;;;;;22.27;16.10;;;9.50;99.90;;;;;;2088397;28;20024;-76
2024/02/10 00:32:51;;;;;;;22.00;16.20;;;9.50;99.90;;;;;;2084746;28;20033;-77
2024/02/10 00:33:51;;;;;;;21.83;15.60;;;9.50;99.90;;;;;;2086925;28;20028;-77
2024/02/10 00:34:52;;;;;;;20.35;16.00;;;9.50;99.90;;;;;;2081676;28;20491;-77
2024/02/10 00:35:53;;;;;;;21.92;16.60;;;9.50;99.90;;;;;;2076171;28;20076;-77
2024/02/10 00:36:54;;;;;;;21.98;15.90;;;9.50;99.90;;;;;;2085328;28;20094;-77
2024/02/10 00:37:56;;;;;;;22.77;16.33;;;9.50;99.90;;;;;;2086877;28;20032;-77
2024/02/10 00:38:57;;;;;;;23.08;16.33;;;9.50;99.90;;;;;;2082405;28;20029;-77
2024/02/10 00:39:58;;;;;;;22.35;16.35;;;9.50;99.90;;;;;;2088223;28;20101;-76
2024/02/10 00:41:03;;;;;;;21.85;16.15;;;9.50;99.90;;;;;;2078856;28;20037;-76
2024/02/10 00:42:03;;;;;;;22.60;16.10;;;9.50;99.90;;;;;;2071575;28;20025;-76
2024/02/10 00:43:07;;;;;;;21.88;16.20;;;9.60;99.90;;;;;;2080759;28;20118;-77
2024/02/10 00:44:08;;;;;;;20.73;16.50;;;9.50;99.90;;;;;;2079848;28;20025;-77
2024/02/10 00:45:09;;;;;;;22.60;16.30;;;9.60;99.90;;;;;;2080507;28;20144;-78
2024/02/10 00:46:15;;;;;;;20.80;15.57;;;9.50;99.90;;;;;;2073906;28;20229;-77
2024/02/10 00:47:15;;;;;;;21.08;15.52;;;9.60;99.90;;;;;;2073989;28;20041;-77
2024/02/10 00:48:17;;;;;;;22.05;15.27;;;9.60;99.90;;;;;;2087290;28;20032;-78
2024/02/10 00:49:24;;;;;;;21.60;16.20;;;9.60;99.90;;;;;;2090705;28;20565;-77
2024/02/10 00:50:24;;;;;;;22.10;15.90;;;9.60;99.90;;;;;;2088151;28;20598;-77
2024/02/10 00:51:27;;;;;;;22.65;15.57;;;9.60;99.90;;;;;;2086433;28;20085;-78
2024/02/10 00:52:28;;;;;;;19.38;15.00;;;9.60;99.90;;;;;;2081568;28;20044;-77
2024/02/10 00:53:29;;;;;;;19.98;15.40;;;9.60;99.90;;;;;;2074829;28;20025;-78
2024/02/10 00:54:30;;;;;;;21.58;15.60;;;9.60;99.90;;;;;;2086740;28;20035;-77
2024/02/10 00:55:30;;;;;;;20.05;15.13;;;9.60;99.90;;;;;;2085875;28;20037;-76
2024/02/10 00:56:31;;;;;;;21.48;14.75;;;9.50;99.90;;;;;;2089153;28;20024;-78
2024/02/10 00:57:31;;;;;;;17.13;13.68;;;9.50;99.90;;;;;;2080155;28;20021;-76
2024/02/10 00:58:32;;;;;;;19.60;14.90;;;9.50;99.90;;;;;;2089026;28;20025;-77
2024/02/10 00:59:32;;;;;;;20.38;14.65;;;9.60;99.90;;;;;;2074145;28;20034;-76
2024/02/10 01:00:34;;;;;;;19.60;14.73;;;9.60;99.90;;;;;;2080210;28;20057;-77
2024/02/10 01:01:34;;;;;;;18.90;14.20;;;9.60;99.90;;;;;;2082375;28;20088;-77
2024/02/10 01:02:35;;;;;;;20.20;15.00;;;9.60;99.90;;;;;;2088383;28;20085;-77
2024/02/10 01:03:37;;;;;;;19.80;14.45;;;9.60;99.90;;;;;;2084274;28;20026;-76
2024/02/10 01:04:39;;;;;;;19.55;14.15;;;9.60;99.90;;;;;;2077124;28;20022;-77
2024/02/10 01:05:40;;;;;;;19.77;14.88;;;9.60;99.90;;;;;;2076663;28;20049;-77
2024/02/10 01:06:44;;;;;;;20.30;14.23;;;9.60;99.90;;;;;;2081657;28;20013;-77
2024/02/10 01:07:47;;;;;;;17.55;14.00;;;9.60;99.90;;;;;;2080203;28;20036;-77
2024/02/10 01:08:50;;;;;;;19.88;15.18;;;9.50;99.90;;;;;;2084608;28;20417;-76
2024/02/10 01:09:50;;;;;;;20.20;14.65;;;9.60;99.90;;;;;;2089814;28;20545;-76
2024/02/10 01:10:52;;;;;;;19.50;14.10;;;9.60;99.90;;;;;;2077394;28;20124;-77
2024/02/10 01:11:53;;;;;;;19.98;14.60;;;9.60;99.90;;;;;;2082215;28;20036;-76
2024/02/10 01:12:53;;;;;;;16.88;13.10;;;9.60;99.90;;;;;;2087746;28;20460;-76
2024/02/10 01:13:54;;;;;;;18.05;13.70;;;9.60;99.90;;;;;;2088792;28;20512;-76
2024/02/10 01:14:57;;;;;;;16.60;13.95;;;9.60;99.90;;;;;;2087297;28;20076;-76
2024/02/10 01:15:57;;;;;;;18.25;13.50;;;9.60;99.90;;;;;;2076684;28;20117;-77
2024/02/10 01:16:58;;;;;;;20.88;14.00;;;9.60;99.90;;;;;;2081176;28;20483;-76
2024/02/10 01:18:03;;;;;;;17.40;13.43;;;9.60;99.90;;;;;;2081038;28;20136;-76
2024/02/10 01:19:06;;;;;;;17.40;13.70;;;9.60;99.90;;;;;;2067695;28;20029;-76
2024/02/10 01:20:07;;;;;;;19.38;13.55;;;9.60;99.90;;;;;;2071306;28;20492;-76
2024/02/10 01:21:09;;;;;;;17.58;13.40;;;9.60;99.90;;;;;;2075941;28;20140;-76
2024/02/10 01:22:10;;;;;;;19.40;13.55;;;9.60;99.90;;;;;;2082800;28;20505;-75
2024/02/10 01:23:11;;;;;;;17.17;13.38;;;9.50;99.90;;;;;;2066851;28;20117;-76
2024/02/10 01:24:12;;;;;;;20.55;13.50;;;9.60;99.90;;;;;;2082726;28;20512;-76
2024/02/10 01:25:12;;;;;;;16.65;13.30;;;9.50;99.90;;;;;;2076573;28;20029;-77
2024/02/10 01:26:13;;;;;;;19.60;12.80;;;9.50;99.90;;;;;;2080863;28;20033;-76
2024/02/10 01:27:18;;;;;;;16.35;12.30;;;9.50;99.90;;;;;;2081929;28;20060;-76
2024/02/10 01:28:21;;;;;;;16.38;12.27;;;9.50;99.90;;;;;;2080250;28;20060;-75
2024/02/10 01:29:24;;;;;;;17.42;12.95;;;9.50;99.90;;;;;;2083895;28;20423;-76
2024/02/10 01:30:26;;;;;;;18.05;13.35;;;9.50;99.90;;;;;;2087111;28;20136;-77
2024/02/10 01:31:26;;;;;;;16.35;12.45;;;9.50;99.90;;;;;;2084647;28;20596;-77
2024/02/10 01:32:27;;;;;;;17.13;13.20;;;9.50;99.90;;;;;;2079160;28;20595;-77
2024/02/10 01:33:28;;;;;;;18.33;12.98;;;9.60;99.90;;;;;;2083538;28;20045;-76
2024/02/10 01:34:29;;;;;;;17.38;12.93;;;9.50;99.90;;;;;;2072761;28;20060;-76
2024/02/10 01:35:30;;;;;;;17.95;12.90;;;9.50;99.90;;;;;;2078755;28;20631;-76
2024/02/10 01:36:33;;;;;;;20.08;13.38;;;9.50;99.90;;;;;;2076334;28;20029;-76
2024/02/10 01:37:33;;;;;;;17.85;13.02;;;9.50;99.90;;;;;;2084091;28;20333;-76
2024/02/10 01:38:37;;;;;;;17.73;12.85;;;9.40;99.90;;;;;;2082593;28;20031;-77
2024/02/10 01:39:37;;;;;;;16.25;12.43;;;9.50;99.90;;;;;;2082676;28;20458;-75
2024/02/10 01:40:39;;;;;;;16.92;11.65;;;9.50;99.90;;;;;;2075174;28;20026;-75
2024/02/10 01:41:40;;;;;;;17.08;12.55;;;9.50;99.90;;;;;;2083189;28;20058;-78
2024/02/10 01:42:40;;;;;;;16.77;12.80;;;9.50;99.90;;;;;;2076247;28;20029;-75
2024/02/10 01:43:43;;;;;;;16.95;12.68;;;9.50;99.90;;;;;;2091259;28;20040;-77
2024/02/10 01:44:44;;;;;;;18.38;13.25;;;9.50;99.90;;;;;;2071571;28;20036;-77
2024/02/10 01:45:45;;;;;;;18.73;13.05;;;9.50;99.90;;;;;;2076315;28;20022;-77
2024/02/10 01:46:47;;;;;;;18.77;13.20;;;9.50;99.90;;;;;;2083748;28;20036;-77
2024/02/10 01:47:48;;;;;;;18.23;13.00;;;9.50;99.90;;;;;;2072297;28;20053;-78
2024/02/10 01:48:49;;;;;;;16.83;12.50;;;9.50;99.90;;;;;;2083536;28;20017;-77
2024/02/10 01:49:50;;;;;;;18.45;13.30;;;9.50;99.90;;;;;;2077364;28;20021;-78
2024/02/10 01:50:51;;;;;;;17.45;12.35;;;9.50;99.90;;;;;;2084173;28;20021;-77
2024/02/10 01:51:52;;;;;;;17.05;13.07;;;9.50;99.90;;;;;;2078273;28;20040;-78
2024/02/10 01:52:52;;;;;;;18.50;12.70;;;9.50;99.90;;;;;;2075997;28;20037;-78
2024/02/10 01:53:54;;;;;;;17.88;12.68;;;9.50;99.90;;;;;;2079615;28;20041;-78
2024/02/10 01:54:55;;;;;;;17.23;12.68;;;9.50;99.90;;;;;;2082995;28;20033;-78
2024/02/10 01:55:58;;;;;;;18.00;12.57;;;9.50;99.90;;;;;;2071865;28;20461;-78
2024/02/10 01:56:59;;;;;;;17.23;12.70;;;9.50;99.90;;;;;;2073359;28;20030;-78
2024/02/10 01:58:06;;;;;;;16.52;11.90;;;9.50;99.90;;;;;;2076861;28;20044;-78
2024/02/10 01:59:08;;;;;;;15.23;12.02;;;9.50;99.90;;;;;;2079970;28;20509;-78
2024/02/10 02:00:13;;;;;;;16.70;12.25;;;9.50;99.90;;;;;;2077327;28;20029;-77
2024/02/10 02:01:20;;;;;;;15.57;11.80;;;9.50;99.90;;;;;;2079854;28;20067;-76
2024/02/10 02:02:21;;;;;;;14.93;11.70;;;9.50;99.90;;;;;;2080712;28;20029;-77
2024/02/10 02:03:26;;;;;;;17.65;12.50;;;9.50;99.90;;;;;;2078793;28;20100;-77
2024/02/10 02:04:27;;;;;;;16.73;12.93;;;9.40;99.90;;;;;;2079810;28;20108;-78
2024/02/10 02:05:32;;;;;;;16.27;12.10;;;9.50;99.90;;;;;;2075093;28;20080;-77
2024/02/10 02:06:34;;;;;;;17.20;12.23;;;9.50;99.90;;;;;;2083577;28;20030;-77
2024/02/10 02:07:34;;;;;;;19.02;13.05;;;9.50;99.90;;;;;;2080787;28;20454;-75
2024/02/10 02:08:35;;;;;;;17.65;13.15;;;9.50;99.90;;;;;;2077334;28;20100;-76
2024/02/10 02:09:36;;;;;;;19.55;13.07;;;9.50;99.90;;;;;;2083016;28;20013;-76
2024/02/10 02:10:37;;;;;;;16.35;12.70;;;9.40;99.90;;;;;;2086389;28;20099;-78
2024/02/10 02:11:45;;;;;;;18.52;12.40;;;9.50;99.90;;;;;;2071691;28;20109;-78
2024/02/10 02:12:48;;;;;;;18.13;12.43;;;9.50;99.90;;;;;;2081728;28;20040;-78
2024/02/10 02:13:49;;;;;;;19.10;14.45;;;9.40;99.90;;;;;;2083587;28;20021;-75
2024/02/10 02:14:50;;;;;;;20.90;15.20;;;9.40;99.90;;;;;;2074794;28;20024;-76
2024/02/10 02:15:58;;;;;;;20.23;14.60;;;9.40;99.90;;;;;;2067144;28;20056;-76
2024/02/10 02:17:00;;;;;;;17.70;13.48;;;9.40;99.90;;;;;;2081232;28;20057;-76
2024/02/10 02:18:00;;;;;;;19.83;14.20;;;9.50;99.90;;;;;;2083112;28;20056;-76
2024/02/10 02:19:02;;;;;;;20.75;14.63;;;9.40;99.90;;;;;;2066848;28;20072;-76
2024/02/10 02:20:04;;;;;;;19.23;14.50;;;9.40;99.90;;;;;;2075078;28;20460;-78
2024/02/10 02:21:06;;;;;;;20.13;13.95;;;9.40;99.90;;;;;;2082810;28;20052;-77
2024/02/10 02:22:09;;;;;;;18.10;14.00;;;9.40;99.90;;;;;;2066747;28;20021;-77
2024/02/10 02:23:18;;;;;;;18.58;13.63;;;9.40;99.90;;;;;;2079261;28;20361;-77
2024/02/10 02:24:19;;;;;;;16.88;13.43;;;9.40;99.90;;;;;;2082514;28;20511;-76
2024/02/10 02:25:20;;;;;;;17.35;14.02;;;9.40;99.90;;;;;;2078493;28;20032;-76
2024/02/10 02:26:21;;;;;;;18.85;13.75;;;9.40;99.90;;;;;;2081937;28;20028;-76
2024/02/10 02:27:21;;;;;;;20.13;14.65;;;9.30;99.90;;;;;;2075759;28;20125;-77
2024/02/10 02:28:23;;;;;;;16.60;13.38;;;9.30;99.90;;;;;;2079278;28;20025;-79
2024/02/10 02:29:24;;;;;;;20.35;14.10;;;9.30;99.90;;;;;;2082810;28;20033;-76
2024/02/10 02:30:25;;;;;;;18.17;13.90;;;9.30;99.90;;;;;;2077741;28;20332;-77
2024/02/10 02:31:26;;;;;;;18.33;14.00;;;9.30;99.90;;;;;;2073119;28;20569;-76
2024/02/10 02:32:28;;;;;;;18.48;14.02;;;9.30;99.90;;;;;;2075437;28;20033;-77
2024/02/10 02:33:31;;;;;;;20.02;15.15;;;9.30;99.90;;;;;;2083977;28;20058;-76
2024/02/10 02:34:33;;;;;;;21.23;14.63;;;9.30;99.90;;;;;;2076874;28;20084;-77
2024/02/10 02:35:33;;;;;;;20.58;15.70;;;9.30;99.90;;;;;;2083451;28;20050;-78
2024/02/10 02:36:35;;;;;;;21.55;16.27;;;9.30;99.90;;;;;;2085832;28;20387;-78
2024/02/10 02:37:40;;;;;;;23.95;16.73;;;9.30;99.90;;;;;;2078358;28;20116;-78
2024/02/10 02:38:43;;;;;;;20.48;15.23;;;9.40;99.90;;;;;;2079360;28;20140;-78
2024/02/10 02:39:44;;;;;;;24.50;16.63;;;9.40;99.90;;;;;;2083176;28;20041;-78
2024/02/10 02:40:45;;;;;;;19.92;15.20;;;9.40;99.90;;;;;;2075091;28;20327;-77
2024/02/10 02:41:46;;;;;;;20.15;15.07;;;9.30;99.90;;;;;;2078087;28;20041;-78
2024/02/10 02:42:46;;;;;;;22.48;15.02;;;9.30;99.90;;;;;;2075991;28;20438;-77
2024/02/10 02:43:47;;;;;;;21.63;15.43;;;9.30;99.90;;;;;;2075075;28;20536;-77
2024/02/10 02:44:48;;;;;;;22.45;15.75;;;9.30;99.90;;;;;;2074961;28;20517;-76
2024/02/10 02:45:48;;;;;;;20.90;15.45;;;9.30;99.90;;;;;;2075870;28;20025;-76
2024/02/10 02:46:49;;;;;;;21.25;15.18;;;9.30;99.90;;;;;;2082758;28;20048;-77
2024/02/10 02:47:49;;;;;;;22.00;15.38;;;9.30;99.90;;;;;;2080741;28;20033;-77
2024/02/10 02:48:53;;;;;;;20.83;15.35;;;9.30;99.90;;;;;;2083379;28;20029;-77
2024/02/10 02:49:54;;;;;;;21.23;15.25;;;9.30;99.90;;;;;;2088963;28;20406;-76
2024/02/10 02:50:55;;;;;;;21.30;15.85;;;9.30;99.90;;;;;;2083584;28;20034;-77
2024/02/10 02:51:56;;;;;;;21.08;14.77;;;9.30;99.90;;;;;;2083021;28;20029;-76
2024/02/10 02:53:02;;;;;;;20.30;14.65;;;9.30;99.90;;;;;;2076161;28;20060;-76
2024/02/10 02:54:02;;;;;;;20.75;15.50;;;9.30;99.90;;;;;;2080335;28;20376;-76
2024/02/10 02:55:03;;;;;;;22.55;15.50;;;9.30;99.90;;;;;;2083847;28;20032;-77
2024/02/10 02:56:09;;;;;;;22.15;15.23;;;9.30;99.90;;;;;;2079011;28;20037;-78
2024/02/10 02:57:09;;;;;;;21.50;15.02;;;9.30;99.90;;;;;;2075819;28;20052;-76
2024/02/10 02:58:10;;;;;;;19.95;15.10;;;9.30;99.90;;;;;;2075227;28;20060;-77
2024/02/10 02:59:14;;;;;;;21.48;15.60;;;9.30;99.90;;;;;;2075092;28;20063;-76
2024/02/10 03:00:15;;;;;;;23.60;15.57;;;9.20;99.90;;;;;;2074865;28;20034;-78
2024/02/10 03:01:15;;;;;;;20.75;15.45;;;9.20;99.90;;;;;;2083311;28;20395;-77
2024/02/10 03:02:16;;;;;;;21.95;14.90;;;9.20;99.90;;;;;;2080142;28;20041;-77
2024/02/10 03:03:19;;;;;;;21.10;15.65;;;9.20;99.90;;;;;;2077788;28;20045;-76
2024/02/10 03:04:20;;;;;;;20.92;15.18;;;9.30;99.90;;;;;;2082948;28;20026;-77
2024/02/10 03:05:20;;;;;;;20.45;14.52;;;9.20;99.90;;;;;;2075756;28;20115;-77
2024/02/10 03:06:21;;;;;;;21.65;14.93;;;9.20;99.90;;;;;;2078623;28;20025;-77
2024/02/10 03:07:22;;;;;;;19.17;14.70;;;9.20;99.90;;;;;;2076381;28;20056;-78
2024/02/10 03:08:22;;;;;;;21.02;15.13;;;9.20;99.90;;;;;;2083366;28;20033;-78
2024/02/10 03:09:23;;;;;;;23.77;15.40;;;9.20;99.90;;;;;;2082582;28;20124;-76
2024/02/10 03:10:23;;;;;;;22.30;15.68;;;9.20;99.90;;;;;;2080482;28;20041;-77
2024/02/10 03:11:26;;;;;;;21.80;15.45;;;9.20;99.90;;;;;;2077902;28;20036;-77
2024/02/10 03:12:26;;;;;;;20.92;15.52;;;9.20;99.90;;;;;;2075602;28;20095;-77
2024/02/10 03:13:27;;;;;;;22.20;16.60;;;9.20;99.90;;;;;;2082522;28;20033;-77
2024/02/10 03:14:28;;;;;;;21.55;15.25;;;9.20;99.90;;;;;;2074696;28;20534;-78
2024/02/10 03:15:30;;;;;;;20.85;15.50;;;9.20;99.90;;;;;;2074632;28;20155;-77
2024/02/10 03:16:33;;;;;;;22.40;16.52;;;9.20;99.90;;;;;;2073910;28;20120;-77
2024/02/10 03:17:33;;;;;;;22.60;15.77;;;9.10;99.90;;;;;;2074576;28;20086;-76
2024/02/10 03:18:38;;;;;;;20.70;14.98;;;9.10;99.90;;;;;;2074619;28;20047;-77
2024/02/10 03:19:38;;;;;;;20.33;14.77;;;9.10;99.90;;;;;;2074436;28;20033;-77
2024/02/10 03:20:39;;;;;;;20.13;14.45;;;9.20;99.90;;;;;;2078528;28;20042;-77
2024/02/10 03:21:40;;;;;;;19.33;15.00;;;9.10;99.90;;;;;;2082475;28;20062;-78
2024/02/10 03:22:40;;;;;;;20.50;15.15;;;9.20;99.90;;;;;;2075531;28;20093;-77
2024/02/10 03:23:41;;;;;;;20.17;14.65;;;9.20;99.90;;;;;;2083065;28;20028;-78
2024/02/10 03:24:47;;;;;;;18.73;13.90;;;9.10;99.90;;;;;;2077361;28;20041;-78
2024/02/10 03:25:49;;;;;;;18.60;13.45;;;9.20;99.90;;;;;;2077241;28;20480;-77
2024/02/10 03:26:50;;;;;;;18.02;13.70;;;9.20;99.90;;;;;;2077519;28;20044;-77
2024/02/10 03:27:51;;;;;;;19.45;13.95;;;9.20;99.90;;;;;;2065818;28;20018;-77
2024/02/10 03:28:53;;;;;;;19.60;14.55;;;9.20;99.90;;;;;;2077654;28;20026;-76
2024/02/10 03:29:53;;;;;;;19.77;14.15;;;9.20;99.90;;;;;;2072223;28;20032;-76
2024/02/10 03:30:54;;;;;;;20.63;14.60;;;9.20;99.90;;;;;;2069556;28;20109;-74
2024/02/10 03:31:55;;;;;;;18.40;13.88;;;9.20;99.90;;;;;;2088161;28;20009;-78
2024/02/10 03:32:56;;;;;;;18.67;13.77;;;9.20;99.90;;;;;;2080773;28;20025;-78
2024/02/10 03:33:57;;;;;;;17.38;12.98;;;9.20;99.90;;;;;;2083961;28;20031;-77
2024/02/10 03:34:58;;;;;;;16.95;12.48;;;9.20;99.90;;;;;;2079674;28;20230;-78
2024/02/10 03:36:03;;;;;;;18.20;13.32;;;9.20;99.90;;;;;;2068805;28;20503;-78
2024/02/10 03:37:03;;;;;;;17.65;13.50;;;9.20;99.90;;;;;;2076462;28;20045;-79
2024/02/10 03:38:04;;;;;;;18.75;13.85;;;9.20;99.90;;;;;;2079308;28;20485;-78
2024/02/10 03:39:07;;;;;;;17.35;12.98;;;9.30;99.90;;;;;;2070861;28;20076;-77
2024/02/10 03:40:14;;;;;;;19.55;13.38;;;9.20;99.90;;;;;;2082565;28;20061;-77
2024/02/10 03:41:15;;;;;;;17.02;13.60;;;9.20;99.90;;;;;;2083197;28;20403;-78
2024/02/10 03:42:16;;;;;;;17.85;13.48;;;9.20;99.90;;;;;;2076996;28;20581;-77
2024/02/10 03:43:17;;;;;;;20.17;13.55;;;9.20;99.90;;;;;;2080427;28;20029;-78
2024/02/10 03:44:22;;;;;;;18.77;13.40;;;9.20;99.90;;;;;;2082279;28;20063;-77
2024/02/10 03:45:25;;;;;;;17.60;12.73;;;9.20;99.90;;;;;;2083139;28;20466;-78
2024/02/10 03:46:26;;;;;;;17.23;12.88;;;9.20;99.90;;;;;;2073807;28;20025;-77
2024/02/10 03:47:26;;;;;;;19.20;13.38;;;9.20;99.90;;;;;;2077639;28;20033;-77
2024/02/10 03:48:27;;;;;;;18.65;13.65;;;9.20;99.90;;;;;;2070813;28;20029;-78
2024/02/10 03:49:28;;;;;;;18.23;13.63;;;9.20;99.90;;;;;;2074484;28;20525;-77
2024/02/10 03:50:29;;;;;;;20.02;13.55;;;9.20;99.90;;;;;;2081061;28;20443;-76
2024/02/10 03:51:30;;;;;;;18.20;12.75;;;9.20;99.90;;;;;;2078784;28;20104;-77
2024/02/10 03:52:31;;;;;;;17.77;12.68;;;9.20;99.90;;;;;;2077960;28;20545;-78
2024/02/10 03:53:32;;;;;;;19.38;13.43;;;9.20;99.90;;;;;;2076647;28;20034;-77
2024/02/10 03:54:33;;;;;;;18.92;13.27;;;9.20;99.90;;;;;;2083120;28;20033;-78
2024/02/10 03:55:34;;;;;;;16.45;12.65;;;9.20;99.90;;;;;;2074490;28;20057;-78
2024/02/10 03:56:37;;;;;;;18.38;13.45;;;9.30;99.90;;;;;;2066486;28;20033;-77
2024/02/10 03:57:38;;;;;;;19.27;13.50;;;9.30;99.90;;;;;;2067459;28;20026;-76
2024/02/10 03:58:40;;;;;;;16.90;13.25;;;9.20;99.90;;;;;;2082385;28;20041;-77
2024/02/10 03:59:41;;;;;;;18.38;12.88;;;9.30;99.90;;;;;;2083471;28;20054;-77
2024/02/10 04:00:43;;;;;;;19.63;13.57;;;9.30;99.90;;;;;;2076479;28;20044;-77
2024/02/10 04:01:45;;;;;;;18.13;13.30;;;9.30;99.90;;;;;;2083651;28;20484;-78
2024/02/10 04:02:46;;;;;;;17.55;13.25;;;9.30;99.90;;;;;;2082813;28;20078;-77
2024/02/10 04:03:47;;;;;;;18.67;13.13;;;9.30;99.90;;;;;;2080614;28;20029;-76
2024/02/10 04:04:50;;;;;;;20.52;13.82;;;9.20;99.90;;;;;;2075539;28;20087;-77
2024/02/10 04:05:50;;;;;;;17.88;13.32;;;9.20;99.90;;;;;;2087203;28;20478;-78
2024/02/10 04:06:51;;;;;;;19.23;13.25;;;9.20;99.90;;;;;;2075938;28;20029;-78
2024/02/10 04:07:52;;;;;;;16.60;12.80;;;9.20;99.90;;;;;;2076557;28;20112;-78
2024/02/10 04:08:53;;;;;;;18.33;13.10;;;9.20;99.90;;;;;;2084903;28;20016;-78
2024/02/10 04:09:53;;;;;;;17.40;11.95;;;9.20;99.90;;;;;;2078720;28;20083;-77
2024/02/10 04:10:54;;;;;;;15.80;12.70;;;9.20;99.90;;;;;;2082131;28;20025;-78
2024/02/10 04:11:57;;;;;;;16.75;12.88;;;9.20;99.90;;;;;;2083870;28;20025;-78
2024/02/10 04:12:58;;;;;;;17.52;12.77;;;9.20;99.90;;;;;;2080008;28;20036;-79
2024/02/10 04:14:01;;;;;;;16.38;12.65;;;9.20;99.90;;;;;;2083519;28;20055;-78
2024/02/10 04:15:04;;;;;;;17.73;13.20;;;9.20;99.90;;;;;;2087865;28;20016;-78
2024/02/10 04:16:04;;;;;;;17.35;13.30;;;9.10;99.90;;;;;;2069316;28;20029;-78
2024/02/10 04:17:05;;;;;;;16.83;12.68;;;9.20;99.90;;;;;;2072033;28;20083;-79
2024/02/10 04:18:05;;;;;;;18.70;13.10;;;9.10;99.90;;;;;;2077935;28;20080;-78
2024/02/10 04:19:06;;;;;;;15.63;12.30;;;9.10;99.90;;;;;;2075952;28;20149;-76
2024/02/10 04:20:08;;;;;;;18.70;13.20;;;9.10;99.90;;;;;;2067743;28;20104;-76
2024/02/10 04:21:09;;;;;;;18.42;13.35;;;9.10;99.90;;;;;;2075906;28;20518;-76
2024/02/10 04:22:10;;;;;;;16.88;12.73;;;9.10;99.90;;;;;;2083388;28;20108;-77
2024/02/10 04:23:12;;;;;;;19.45;13.10;;;9.00;99.90;;;;;;2083634;28;20033;-76
2024/02/10 04:24:16;;;;;;;16.42;13.25;;;9.00;99.90;;;;;;2068855;28;20451;-76
2024/02/10 04:25:17;;;;;;;16.13;12.43;;;9.00;99.90;;;;;;2076134;28;20025;-78
2024/02/10 04:26:18;;;;;;;18.10;13.13;;;9.00;99.90;;;;;;2083844;28;20036;-76
2024/02/10 04:27:20;;;;;;;20.77;13.63;;;9.00;99.90;;;;;;2075929;28;20029;-76
2024/02/10 04:28:22;;;;;;;17.70;13.35;;;8.90;99.90;;;;;;2080553;28;20453;-77
2024/02/10 04:29:23;;;;;;;17.45;13.00;;;8.90;99.90;;;;;;2070885;28;20033;-77
2024/02/10 04:30:24;;;;;;;19.60;14.00;;;8.90;99.90;;;;;;2064969;28;20030;-77
2024/02/10 04:31:24;;;;;;;18.42;13.38;;;8.90;99.90;;;;;;2069203;28;20040;-77
2024/02/10 04:32:25;;;;;;;19.30;14.10;;;8.90;99.90;;;;;;2082109;28;20017;-77
2024/02/10 04:33:25;;;;;;;19.67;13.48;;;8.90;99.90;;;;;;2083597;28;20569;-77
2024/02/10 04:34:30;;;;;;;20.42;13.85;;;8.80;99.90;;;;;;2078129;28;20034;-77
2024/02/10 04:35:31;;;;;;;20.42;14.07;;;8.80;99.90;;;;;;2080260;28;20013;-77
2024/02/10 04:36:34;;;;;;;20.85;13.88;;;8.80;99.90;;;;;;2075591;28;20452;-77
2024/02/10 04:37:35;;;;;;;19.27;13.77;;;8.80;99.90;;;;;;2067899;28;20063;-78
2024/02/10 04:38:36;;;;;;;21.92;14.18;;;8.70;99.90;;;;;;2075678;28;20021;-78
2024/02/10 04:39:37;;;;;;;23.10;14.60;;;8.70;99.90;;;;;;2078459;28;20521;-77
2024/02/10 04:40:38;;;;;;;20.77;14.23;;;8.70;99.90;;;;;;2086839;28;20021;-75
2024/02/10 04:41:39;;;;;;;21.13;13.45;;;8.70;99.90;;;;;;2084287;28;20527;-76
2024/02/10 04:42:39;;;;;;;19.70;14.15;;;8.70;99.90;;;;;;2079405;28;20080;-75
2024/02/10 04:43:40;;;;;;;20.42;14.45;;;8.70;99.90;;;;;;2084062;28;20025;-75
2024/02/10 04:44:48;;;;;;;18.02;13.85;;;8.60;99.90;;;;;;2080431;28;20063;-77
2024/02/10 04:45:49;;;;;;;19.90;13.68;;;8.60;99.90;;;;;;2076226;28;20081;-75
2024/02/10 04:46:50;;;;;;;19.38;13.90;;;8.60;99.90;;;;;;2075981;28;20078;-76
2024/02/10 04:47:51;;;;;;;19.55;13.77;;;8.60;99.90;;;;;;2083040;28;20461;-77
2024/02/10 04:48:55;;;;;;;18.85;14.05;;;8.50;99.90;;;;;;2075895;28;20129;-76
2024/02/10 04:49:55;;;;;;;17.27;13.00;;;8.50;99.90;;;;;;2080285;28;20025;-76
2024/02/10 04:50:57;;;;;;;19.42;14.02;;;8.50;99.90;;;;;;2081540;28;20040;-75
2024/02/10 04:51:58;;;;;;;18.63;13.20;;;8.50;99.90;;;;;;2075317;28;20021;-75
2024/02/10 04:52:59;;;;;;;19.42;14.00;;;8.50;99.90;;;;;;2079643;28;20031;-77
2024/02/10 04:54:07;;;;;;;19.30;14.13;;;8.50;99.90;;;;;;2076198;28;20654;-76
2024/02/10 04:55:08;;;;;;;20.48;14.13;;;8.50;99.90;;;;;;2078510;28;20436;-75
2024/02/10 04:56:08;;;;;;;19.65;14.32;;;8.50;99.90;;;;;;2078141;28;20045;-75
2024/02/10 04:57:09;;;;;;;20.42;14.95;;;8.50;99.90;;;;;;2076197;28;20501;-75
2024/02/10 04:58:12;;;;;;;24.38;14.73;;;8.60;99.90;;;;;;2084408;28;20078;-75
2024/02/10 04:59:17;;;;;;;20.58;14.98;;;8.60;99.90;;;;;;2080505;28;20040;-77
2024/02/10 05:00:19;;;;;;;23.10;14.68;;;8.60;99.90;;;;;;2082695;28;20026;-76
2024/02/10 05:01:28;;;;;;;18.83;14.02;;;8.60;99.90;;;;;;2080751;28;20037;-76
2024/02/10 05:02:29;;;;;;;19.77;14.50;;;8.60;99.90;;;;;;2075528;28;20193;-75
2024/02/10 05:03:29;;;;;;;19.92;13.88;;;8.60;99.90;;;;;;2083397;28;20037;-78
2024/02/10 05:04:30;;;;;;;22.55;14.60;;;8.60;99.90;;;;;;2083369;28;20028;-75
2024/02/10 05:05:30;;;;;;;19.23;13.80;;;8.60;99.90;;;;;;2076216;28;20040;-76
2024/02/10 05:06:31;;;;;;;20.27;14.18;;;8.70;99.90;;;;;;2079973;28;20040;-76
2024/02/10 05:07:32;;;;;;;23.15;15.15;;;8.60;99.90;;;;;;2086649;28;20048;-75
2024/02/10 05:08:32;;;;;;;22.55;15.73;;;8.60;99.90;;;;;;2075882;28;20040;-76
2024/02/10 05:09:33;;;;;;;22.08;15.00;;;8.70;99.90;;;;;;2078175;28;20710;-76
2024/02/10 05:10:34;;;;;;;22.83;15.40;;;8.60;99.90;;;;;;2083004;28;20047;-76
2024/02/10 05:11:35;;;;;;;22.20;15.15;;;8.70;99.90;;;;;;2072530;28;20475;-76
2024/02/10 05:12:37;;;;;;;21.75;15.82;;;8.70;99.90;;;;;;2070353;28;20030;-76
2024/02/10 05:13:38;;;;;;;23.02;15.70;;;8.70;99.90;;;;;;2076543;28;20033;-75
2024/02/10 05:14:38;;;;;;;23.40;16.48;;;8.70;99.90;;;;;;2082136;28;20465;-75
2024/02/10 05:15:39;;;;;;;24.42;17.02;;;8.70;99.90;;;;;;2081211;28;20034;-75